sensor_id;sensor_type;location;lat;lon;timestamp;pressure;altitude;pressure_sealevel;temperature;humidity
829;BME280;396;52.558;13.188;2023-02-28T00:00:09;102617.41;;;0.32;91.98
829;BME280;396;52.558;13.188;2023-02-28T00:02:36;102607.56;;;0.32;92.20
829;BME280;396;52.558;13.188;2023-02-28T00:05:04;102614.25;;;0.28;92.41
829;BME280;396;52.558;13.188;2023-02-28T00:07:31;102615.34;;;0.34;91.73
829;BME280;396;52.558;13.188;2023-02-28T00:09:58;102614.25;;;0.28;91.87
829;BME280;396;52.558;13.188;2023-02-28T00:12:25;102613.31;;;0.21;92.59
829;BME280;396;52.558;13.188;2023-02-28T00:14:53;102611.66;;;0.20;92.45
829;BME280;396;52.558;13.188;2023-02-28T00:17:19;102614.41;;;0.12;92.84
829;BME280;396;52.558;13.188;2023-02-28T00:19:47;102619.09;;;0.10;93.03
829;BME280;396;52.558;13.188;2023-02-28T00:22:14;102613.31;;;0.06;92.96
829;BME280;396;52.558;13.188;2023-02-28T00:24:41;102607.50;;;0.03;93.44
829;BME280;396;52.558;13.188;2023-02-28T00:27:08;102613.59;;;0.11;94.02
829;BME280;396;52.558;13.188;2023-02-28T00:29:35;102610.19;;;0.17;94.24
829;BME280;396;52.558;13.188;2023-02-28T00:32:03;102610.28;;;0.09;95.23
829;BME280;396;52.558;13.188;2023-02-28T00:34:30;102615.97;;;0.06;95.84
829;BME280;396;52.558;13.188;2023-02-28T00:36:57;102622.81;;;0.23;94.93
829;BME280;396;52.558;13.188;2023-02-28T00:39:24;102620.41;;;0.29;94.27
829;BME280;396;52.558;13.188;2023-02-28T00:41:51;102624.19;;;0.34;94.11
829;BME280;396;52.558;13.188;2023-02-28T00:44:17;102623.06;;;0.29;94.17
829;BME280;396;52.558;13.188;2023-02-28T00:46:46;102623.63;;;0.24;93.98
829;BME280;396;52.558;13.188;2023-02-28T00:49:14;102613.88;;;0.16;95.22
829;BME280;396;52.558;13.188;2023-02-28T00:51:41;102613.59;;;0.26;94.68
829;BME280;396;52.558;13.188;2023-02-28T00:54:08;102617.94;;;0.27;94.39
829;BME280;396;52.558;13.188;2023-02-28T00:56:34;102629.91;;;0.08;95.21
829;BME280;396;52.558;13.188;2023-02-28T00:59:01;102627.63;;;0.05;95.08
829;BME280;396;52.558;13.188;2023-02-28T01:01:27;102624.25;;;0.11;94.46
829;BME280;396;52.558;13.188;2023-02-28T01:03:54;102621.03;;;0.01;93.56
829;BME280;396;52.558;13.188;2023-02-28T01:06:22;102620.53;;;-0.03;93.79
829;BME280;396;52.558;13.188;2023-02-28T01:08:48;102617.94;;;-0.11;94.32
829;BME280;396;52.558;13.188;2023-02-28T01:11:17;102624.09;;;-0.10;94.39
829;BME280;396;52.558;13.188;2023-02-28T01:13:45;102619.22;;;-0.21;93.76
829;BME280;396;52.558;13.188;2023-02-28T01:16:13;102613.00;;;-0.37;93.74
829;BME280;396;52.558;13.188;2023-02-28T01:18:39;102625.28;;;-0.36;94.05
829;BME280;396;52.558;13.188;2023-02-28T01:21:08;102615.94;;;-0.32;93.89
829;BME280;396;52.558;13.188;2023-02-28T01:23:36;102612.84;;;-0.35;93.89
829;BME280;396;52.558;13.188;2023-02-28T01:26:04;102610.16;;;-0.35;93.99
829;BME280;396;52.558;13.188;2023-02-28T01:28:31;102611.53;;;-0.39;94.06
829;BME280;396;52.558;13.188;2023-02-28T01:30:58;102604.38;;;-0.39;94.04
829;BME280;396;52.558;13.188;2023-02-28T01:33:24;102600.75;;;-0.46;94.89
829;BME280;396;52.558;13.188;2023-02-28T01:35:57;102599.75;;;-0.45;95.26
829;BME280;396;52.558;13.188;2023-02-28T01:38:24;102605.19;;;-0.38;95.52
829;BME280;396;52.558;13.188;2023-02-28T01:40:52;102595.25;;;-0.44;95.32
829;BME280;396;52.558;13.188;2023-02-28T01:43:24;102597.28;;;-0.46;94.55
829;BME280;396;52.558;13.188;2023-02-28T01:45:51;102595.00;;;-0.58;95.03
829;BME280;396;52.558;13.188;2023-02-28T01:48:19;102596.16;;;-0.52;95.08
829;BME280;396;52.558;13.188;2023-02-28T01:50:47;102597.44;;;-0.48;95.00
829;BME280;396;52.558;13.188;2023-02-28T01:53:18;102595.97;;;-0.51;95.30
829;BME280;396;52.558;13.188;2023-02-28T01:55:48;102589.22;;;-0.61;94.79
829;BME280;396;52.558;13.188;2023-02-28T01:58:18;102598.91;;;-0.68;94.71
829;BME280;396;52.558;13.188;2023-02-28T02:00:45;102599.63;;;-0.74;95.04
829;BME280;396;52.558;13.188;2023-02-28T02:03:13;102600.69;;;-0.84;95.03
829;BME280;396;52.558;13.188;2023-02-28T02:05:41;102598.09;;;-1.00;96.73
829;BME280;396;52.558;13.188;2023-02-28T02:08:16;102597.06;;;-0.91;95.79
829;BME280;396;52.558;13.188;2023-02-28T02:10:45;102588.63;;;-1.03;96.18
829;BME280;396;52.558;13.188;2023-02-28T02:13:25;102595.50;;;-1.08;97.79
829;BME280;396;52.558;13.188;2023-02-28T02:16:02;102600.78;;;-1.00;96.45
829;BME280;396;52.558;13.188;2023-02-28T02:18:36;102599.13;;;-1.01;97.33
829;BME280;396;52.558;13.188;2023-02-28T02:21:18;102591.09;;;-0.93;96.34
829;BME280;396;52.558;13.188;2023-02-28T02:24:28;102597.25;;;-0.92;95.83
829;BME280;396;52.558;13.188;2023-02-28T02:27:20;102591.44;;;-0.96;96.35
829;BME280;396;52.558;13.188;2023-02-28T02:30:30;102586.50;;;-1.07;97.07
829;BME280;396;52.558;13.188;2023-02-28T02:33:24;102586.47;;;-0.99;96.75
829;BME280;396;52.558;13.188;2023-02-28T02:36:01;102590.16;;;-1.08;96.44
829;BME280;396;52.558;13.188;2023-02-28T02:38:33;102595.19;;;-1.13;96.75
829;BME280;396;52.558;13.188;2023-02-28T02:41:08;102604.16;;;-1.14;96.48
829;BME280;396;52.558;13.188;2023-02-28T02:43:43;102601.53;;;-1.22;96.76
829;BME280;396;52.558;13.188;2023-02-28T02:46:14;102591.47;;;-1.35;96.03
829;BME280;396;52.558;13.188;2023-02-28T02:48:43;102603.59;;;-1.41;97.43
829;BME280;396;52.558;13.188;2023-02-28T02:51:15;102595.13;;;-1.36;96.90
829;BME280;396;52.558;13.188;2023-02-28T02:53:48;102595.66;;;-1.49;96.74
829;BME280;396;52.558;13.188;2023-02-28T02:56:18;102598.22;;;-1.64;95.68
829;BME280;396;52.558;13.188;2023-02-28T02:58:48;102601.03;;;-1.73;96.21
829;BME280;396;52.558;13.188;2023-02-28T03:01:18;102591.41;;;-1.66;96.19
829;BME280;396;52.558;13.188;2023-02-28T03:03:54;102599.53;;;-1.68;97.73
829;BME280;396;52.558;13.188;2023-02-28T03:06:23;102594.88;;;-1.74;97.36
829;BME280;396;52.558;13.188;2023-02-28T03:08:50;102589.75;;;-1.67;96.25
829;BME280;396;52.558;13.188;2023-02-28T03:11:16;102593.22;;;-1.67;95.86
829;BME280;396;52.558;13.188;2023-02-28T03:13:52;102595.56;;;-1.72;96.23
829;BME280;396;52.558;13.188;2023-02-28T03:16:33;102593.66;;;-1.55;95.05
829;BME280;396;52.558;13.188;2023-02-28T03:19:25;102600.19;;;-1.66;94.31
829;BME280;396;52.558;13.188;2023-02-28T03:22:09;102600.69;;;-1.70;95.86
829;BME280;396;52.558;13.188;2023-02-28T03:24:44;102604.19;;;-1.78;95.22
829;BME280;396;52.558;13.188;2023-02-28T03:27:17;102606.38;;;-1.90;95.50
829;BME280;396;52.558;13.188;2023-02-28T03:29:50;102610.19;;;-1.76;95.82
829;BME280;396;52.558;13.188;2023-02-28T03:32:24;102605.06;;;-1.86;94.99
829;BME280;396;52.558;13.188;2023-02-28T03:34:56;102615.31;;;-1.83;95.20
829;BME280;396;52.558;13.188;2023-02-28T03:37:29;102609.19;;;-1.83;93.69
829;BME280;396;52.558;13.188;2023-02-28T03:40:00;102614.00;;;-1.79;94.29
829;BME280;396;52.558;13.188;2023-02-28T03:42:29;102612.53;;;-1.81;94.86
829;BME280;396;52.558;13.188;2023-02-28T03:45:00;102615.69;;;-1.94;96.11
829;BME280;396;52.558;13.188;2023-02-28T03:47:31;102611.03;;;-1.92;95.74
829;BME280;396;52.558;13.188;2023-02-28T03:50:03;102625.31;;;-2.01;96.68
829;BME280;396;52.558;13.188;2023-02-28T03:52:35;102623.81;;;-2.20;97.83
829;BME280;396;52.558;13.188;2023-02-28T03:55:07;102621.19;;;-2.12;97.84
829;BME280;396;52.558;13.188;2023-02-28T03:57:38;102619.50;;;-1.96;96.76
829;BME280;396;52.558;13.188;2023-02-28T04:00:09;102623.16;;;-2.06;96.58
829;BME280;396;52.558;13.188;2023-02-28T04:02:40;102624.66;;;-2.19;97.91
829;BME280;396;52.558;13.188;2023-02-28T04:05:07;102618.00;;;-2.23;97.53
829;BME280;396;52.558;13.188;2023-02-28T04:07:35;102628.47;;;-2.30;97.22
829;BME280;396;52.558;13.188;2023-02-28T04:10:03;102624.66;;;-2.28;96.87
829;BME280;396;52.558;13.188;2023-02-28T04:12:30;102613.84;;;-2.26;96.92
829;BME280;396;52.558;13.188;2023-02-28T04:14:56;102611.38;;;-2.19;96.59
829;BME280;396;52.558;13.188;2023-02-28T04:17:23;102613.03;;;-2.35;95.32
829;BME280;396;52.558;13.188;2023-02-28T04:19:49;102617.97;;;-2.48;96.00
829;BME280;396;52.558;13.188;2023-02-28T04:22:16;102617.66;;;-2.53;96.84
829;BME280;396;52.558;13.188;2023-02-28T04:24:45;102613.53;;;-2.56;96.04
829;BME280;396;52.558;13.188;2023-02-28T04:27:11;102626.28;;;-2.35;94.67
829;BME280;396;52.558;13.188;2023-02-28T04:29:38;102623.66;;;-2.43;94.18
829;BME280;396;52.558;13.188;2023-02-28T04:32:05;102629.94;;;-2.60;95.34
829;BME280;396;52.558;13.188;2023-02-28T04:34:32;102625.75;;;-2.71;95.44
829;BME280;396;52.558;13.188;2023-02-28T04:36:59;102622.41;;;-2.81;95.67
829;BME280;396;52.558;13.188;2023-02-28T04:39:26;102629.22;;;-2.78;94.89
829;BME280;396;52.558;13.188;2023-02-28T04:41:54;102620.31;;;-2.69;94.75
829;BME280;396;52.558;13.188;2023-02-28T04:44:21;102629.06;;;-2.77;96.57
829;BME280;396;52.558;13.188;2023-02-28T04:46:48;102624.22;;;-2.90;97.17
829;BME280;396;52.558;13.188;2023-02-28T04:49:15;102631.34;;;-2.90;96.07
829;BME280;396;52.558;13.188;2023-02-28T04:51:42;102628.84;;;-3.00;95.31
829;BME280;396;52.558;13.188;2023-02-28T04:54:09;102632.44;;;-3.09;96.06
829;BME280;396;52.558;13.188;2023-02-28T04:56:35;102628.59;;;-3.15;96.25
829;BME280;396;52.558;13.188;2023-02-28T04:59:03;102636.31;;;-2.95;96.27
829;BME280;396;52.558;13.188;2023-02-28T05:01:31;102632.97;;;-2.97;95.19
829;BME280;396;52.558;13.188;2023-02-28T05:03:59;102633.44;;;-3.02;94.64
829;BME280;396;52.558;13.188;2023-02-28T05:06:28;102633.22;;;-3.17;94.85
829;BME280;396;52.558;13.188;2023-02-28T05:08:55;102642.53;;;-3.13;95.44
829;BME280;396;52.558;13.188;2023-02-28T05:11:24;102643.22;;;-3.02;95.19
829;BME280;396;52.558;13.188;2023-02-28T05:13:51;102648.22;;;-2.99;94.73
829;BME280;396;52.558;13.188;2023-02-28T05:16:20;102634.53;;;-3.21;94.23
829;BME280;396;52.558;13.188;2023-02-28T05:18:47;102641.16;;;-3.25;94.27
829;BME280;396;52.558;13.188;2023-02-28T05:21:25;102633.41;;;-3.18;94.00
829;BME280;396;52.558;13.188;2023-02-28T05:23:52;102646.28;;;-3.23;94.11
829;BME280;396;52.558;13.188;2023-02-28T05:26:18;102643.97;;;-3.26;94.17
829;BME280;396;52.558;13.188;2023-02-28T05:28:45;102649.66;;;-3.13;93.19
829;BME280;396;52.558;13.188;2023-02-28T05:31:12;102645.91;;;-3.28;92.63
829;BME280;396;52.558;13.188;2023-02-28T05:33:40;102646.09;;;-3.30;93.71
829;BME280;396;52.558;13.188;2023-02-28T05:36:07;102644.97;;;-3.27;93.83
829;BME280;396;52.558;13.188;2023-02-28T05:38:34;102643.28;;;-3.28;93.31
829;BME280;396;52.558;13.188;2023-02-28T05:41:05;102652.53;;;-3.33;93.46
829;BME280;396;52.558;13.188;2023-02-28T05:43:31;102654.69;;;-3.28;93.93
829;BME280;396;52.558;13.188;2023-02-28T05:45:58;102653.41;;;-3.24;93.16
829;BME280;396;52.558;13.188;2023-02-28T05:48:24;102651.16;;;-3.37;93.56
829;BME280;396;52.558;13.188;2023-02-28T05:50:53;102661.75;;;-3.45;93.42
829;BME280;396;52.558;13.188;2023-02-28T05:53:20;102655.06;;;-3.57;94.30
829;BME280;396;52.558;13.188;2023-02-28T05:55:47;102662.81;;;-3.56;94.95
829;BME280;396;52.558;13.188;2023-02-28T05:58:13;102671.50;;;-3.45;93.21
829;BME280;396;52.558;13.188;2023-02-28T06:00:40;102673.31;;;-3.46;93.35
829;BME280;396;52.558;13.188;2023-02-28T06:03:06;102673.66;;;-3.49;95.19
829;BME280;396;52.558;13.188;2023-02-28T06:05:33;102669.69;;;-3.45;95.71
829;BME280;396;52.558;13.188;2023-02-28T06:08:01;102669.00;;;-3.47;96.61
829;BME280;396;52.558;13.188;2023-02-28T06:10:27;102673.38;;;-3.38;96.36
829;BME280;396;52.558;13.188;2023-02-28T06:12:54;102669.16;;;-3.22;95.09
829;BME280;396;52.558;13.188;2023-02-28T06:15:21;102676.06;;;-3.30;94.16
829;BME280;396;52.558;13.188;2023-02-28T06:17:47;102681.72;;;-3.24;94.73
829;BME280;396;52.558;13.188;2023-02-28T06:20:14;102686.88;;;-3.23;94.28
829;BME280;396;52.558;13.188;2023-02-28T06:22:41;102680.00;;;-3.34;95.04
829;BME280;396;52.558;13.188;2023-02-28T06:25:10;102682.66;;;-3.34;95.88
829;BME280;396;52.558;13.188;2023-02-28T06:27:37;102684.00;;;-3.30;95.38
829;BME280;396;52.558;13.188;2023-02-28T06:30:04;102688.00;;;-3.25;95.67
829;BME280;396;52.558;13.188;2023-02-28T06:32:31;102687.72;;;-3.22;95.34
829;BME280;396;52.558;13.188;2023-02-28T06:34:58;102690.91;;;-3.37;95.53
829;BME280;396;52.558;13.188;2023-02-28T06:37:24;102695.56;;;-3.39;94.20
829;BME280;396;52.558;13.188;2023-02-28T06:39:52;102697.94;;;-3.27;93.48
829;BME280;396;52.558;13.188;2023-02-28T06:42:22;102699.38;;;-3.33;94.47
829;BME280;396;52.558;13.188;2023-02-28T06:44:50;102704.53;;;-3.32;94.72
829;BME280;396;52.558;13.188;2023-02-28T06:47:16;102705.16;;;-3.38;94.57
829;BME280;396;52.558;13.188;2023-02-28T06:49:43;102706.81;;;-3.37;94.77
829;BME280;396;52.558;13.188;2023-02-28T06:52:10;102710.88;;;-3.24;94.87
829;BME280;396;52.558;13.188;2023-02-28T06:54:37;102709.66;;;-3.04;93.90
829;BME280;396;52.558;13.188;2023-02-28T06:57:04;102716.72;;;-3.13;94.23
829;BME280;396;52.558;13.188;2023-02-28T06:59:32;102718.03;;;-3.17;95.29
829;BME280;396;52.558;13.188;2023-02-28T07:01:58;102724.25;;;-3.00;94.57
829;BME280;396;52.558;13.188;2023-02-28T07:04:25;102717.13;;;-2.99;94.79
829;BME280;396;52.558;13.188;2023-02-28T07:06:53;102713.31;;;-2.97;95.79
829;BME280;396;52.558;13.188;2023-02-28T07:09:22;102718.88;;;-2.82;94.89
829;BME280;396;52.558;13.188;2023-02-28T07:11:48;102712.09;;;-2.76;95.59
829;BME280;396;52.558;13.188;2023-02-28T07:14:15;102714.78;;;-2.68;97.59
829;BME280;396;52.558;13.188;2023-02-28T07:16:43;102710.97;;;-2.58;98.05
829;BME280;396;52.558;13.188;2023-02-28T07:19:10;102713.97;;;-2.53;97.21
829;BME280;396;52.558;13.188;2023-02-28T07:21:37;102721.34;;;-2.38;97.99
829;BME280;396;52.558;13.188;2023-02-28T07:24:04;102712.22;;;-2.28;97.69
829;BME280;396;52.558;13.188;2023-02-28T07:26:30;102719.88;;;-2.16;97.89
829;BME280;396;52.558;13.188;2023-02-28T07:28:59;102721.22;;;-1.96;98.58
829;BME280;396;52.558;13.188;2023-02-28T07:31:26;102731.84;;;-1.80;97.56
829;BME280;396;52.558;13.188;2023-02-28T07:33:54;102722.56;;;-1.75;97.28
829;BME280;396;52.558;13.188;2023-02-28T07:36:21;102729.03;;;-1.70;97.76
829;BME280;396;52.558;13.188;2023-02-28T07:38:48;102727.88;;;-1.59;97.59
829;BME280;396;52.558;13.188;2023-02-28T07:41:15;102723.53;;;-1.52;97.54
829;BME280;396;52.558;13.188;2023-02-28T07:43:42;102729.84;;;-1.45;98.55
829;BME280;396;52.558;13.188;2023-02-28T07:46:12;102726.81;;;-1.34;98.08
829;BME280;396;52.558;13.188;2023-02-28T07:48:40;102722.50;;;-1.27;97.80
829;BME280;396;52.558;13.188;2023-02-28T07:51:08;102726.50;;;-1.22;98.27
829;BME280;396;52.558;13.188;2023-02-28T07:53:35;102732.44;;;-1.12;98.58
829;BME280;396;52.558;13.188;2023-02-28T07:56:02;102732.91;;;-1.00;99.04
829;BME280;396;52.558;13.188;2023-02-28T07:58:30;102727.38;;;-0.91;98.58
829;BME280;396;52.558;13.188;2023-02-28T08:00:57;102723.69;;;-0.82;98.65
829;BME280;396;52.558;13.188;2023-02-28T08:03:23;102724.69;;;-0.74;98.73
829;BME280;396;52.558;13.188;2023-02-28T08:05:51;102725.47;;;-0.66;99.12
829;BME280;396;52.558;13.188;2023-02-28T08:08:19;102725.94;;;-0.62;99.52
829;BME280;396;52.558;13.188;2023-02-28T08:10:46;102733.53;;;-0.51;98.89
829;BME280;396;52.558;13.188;2023-02-28T08:13:13;102730.66;;;-0.41;99.86
829;BME280;396;52.558;13.188;2023-02-28T08:15:40;102729.06;;;-0.28;99.40
829;BME280;396;52.558;13.188;2023-02-28T08:18:08;102720.69;;;-0.16;100.00
829;BME280;396;52.558;13.188;2023-02-28T08:20:34;102724.66;;;-0.12;100.00
829;BME280;396;52.558;13.188;2023-02-28T08:23:01;102726.75;;;0.01;100.00
829;BME280;396;52.558;13.188;2023-02-28T08:25:29;102721.66;;;0.14;100.00
829;BME280;396;52.558;13.188;2023-02-28T08:27:55;102725.44;;;0.19;99.83
829;BME280;396;52.558;13.188;2023-02-28T08:30:22;102722.09;;;0.40;98.97
829;BME280;396;52.558;13.188;2023-02-28T08:32:49;102719.50;;;0.47;98.71
829;BME280;396;52.558;13.188;2023-02-28T08:35:15;102715.50;;;0.66;97.97
829;BME280;396;52.558;13.188;2023-02-28T08:37:42;102725.66;;;0.85;96.83
829;BME280;396;52.558;13.188;2023-02-28T08:40:09;102727.22;;;0.94;95.43
829;BME280;396;52.558;13.188;2023-02-28T08:42:39;102731.25;;;1.05;94.09
829;BME280;396;52.558;13.188;2023-02-28T08:45:07;102735.88;;;1.11;93.08
829;BME280;396;52.558;13.188;2023-02-28T08:47:33;102728.13;;;1.16;92.04
829;BME280;396;52.558;13.188;2023-02-28T08:50:00;102726.81;;;1.27;89.94
829;BME280;396;52.558;13.188;2023-02-28T08:52:26;102730.00;;;1.37;86.68
829;BME280;396;52.558;13.188;2023-02-28T08:54:53;102731.13;;;1.43;83.52
829;BME280;396;52.558;13.188;2023-02-28T08:57:20;102732.94;;;1.57;83.28
829;BME280;396;52.558;13.188;2023-02-28T08:59:48;102729.78;;;1.68;81.42
829;BME280;396;52.558;13.188;2023-02-28T09:02:14;102731.75;;;1.81;77.57
829;BME280;396;52.558;13.188;2023-02-28T09:04:41;102735.22;;;1.96;77.79
829;BME280;396;52.558;13.188;2023-02-28T09:07:10;102741.63;;;2.02;73.50
829;BME280;396;52.558;13.188;2023-02-28T09:09:37;102731.44;;;2.12;72.66
829;BME280;396;52.558;13.188;2023-02-28T09:12:19;102739.59;;;2.25;71.44
829;BME280;396;52.558;13.188;2023-02-28T09:14:46;102742.78;;;2.36;70.28
829;BME280;396;52.558;13.188;2023-02-28T09:17:13;102752.50;;;2.43;67.13
829;BME280;396;52.558;13.188;2023-02-28T09:19:40;102739.66;;;2.60;66.49
829;BME280;396;52.558;13.188;2023-02-28T09:22:07;102741.41;;;2.74;64.81
829;BME280;396;52.558;13.188;2023-02-28T09:24:35;102747.44;;;2.83;61.77
829;BME280;396;52.558;13.188;2023-02-28T09:27:02;102745.03;;;2.88;61.37
829;BME280;396;52.558;13.188;2023-02-28T09:29:29;102745.44;;;2.92;59.48
829;BME280;396;52.558;13.188;2023-02-28T09:31:56;102736.28;;;3.08;60.38
829;BME280;396;52.558;13.188;2023-02-28T09:34:25;102733.06;;;3.19;61.21
829;BME280;396;52.558;13.188;2023-02-28T09:36:52;102738.19;;;3.20;60.13
829;BME280;396;52.558;13.188;2023-02-28T09:39:20;102738.59;;;3.17;58.39
829;BME280;396;52.558;13.188;2023-02-28T09:41:50;102737.00;;;3.29;59.59
829;BME280;396;52.558;13.188;2023-02-28T09:44:22;102739.53;;;3.38;58.78
829;BME280;396;52.558;13.188;2023-02-28T09:46:56;102737.69;;;3.45;58.76
829;BME280;396;52.558;13.188;2023-02-28T09:49:34;102733.56;;;3.42;57.00
829;BME280;396;52.558;13.188;2023-02-28T09:52:05;102738.25;;;3.34;57.26
829;BME280;396;52.558;13.188;2023-02-28T09:54:35;102740.13;;;3.40;57.99
829;BME280;396;52.558;13.188;2023-02-28T09:57:07;102747.56;;;3.38;56.04
829;BME280;396;52.558;13.188;2023-02-28T09:59:55;102739.91;;;3.35;55.65
829;BME280;396;52.558;13.188;2023-02-28T10:02:54;102737.28;;;3.48;56.67
829;BME280;396;52.558;13.188;2023-02-28T10:05:29;102734.25;;;3.71;57.89
829;BME280;396;52.558;13.188;2023-02-28T10:08:03;102739.88;;;3.83;57.14
829;BME280;396;52.558;13.188;2023-02-28T10:10:38;102742.38;;;3.91;56.45
829;BME280;396;52.558;13.188;2023-02-28T10:13:13;102743.41;;;3.96;57.37
829;BME280;396;52.558;13.188;2023-02-28T10:15:41;102749.81;;;4.15;55.95
829;BME280;396;52.558;13.188;2023-02-28T10:18:11;102751.06;;;4.19;54.49
829;BME280;396;52.558;13.188;2023-02-28T10:20:42;102749.03;;;4.21;53.36
829;BME280;396;52.558;13.188;2023-02-28T10:23:13;102743.47;;;4.29;53.25
829;BME280;396;52.558;13.188;2023-02-28T10:25:45;102749.84;;;4.28;52.06
829;BME280;396;52.558;13.188;2023-02-28T10:28:16;102752.13;;;4.32;52.15
829;BME280;396;52.558;13.188;2023-02-28T10:30:46;102745.28;;;4.42;53.54
829;BME280;396;52.558;13.188;2023-02-28T10:33:22;102752.09;;;4.51;51.85
829;BME280;396;52.558;13.188;2023-02-28T10:35:52;102743.44;;;4.63;52.32
829;BME280;396;52.558;13.188;2023-02-28T10:38:20;102734.97;;;4.72;51.95
829;BME280;396;52.558;13.188;2023-02-28T10:40:48;102745.91;;;4.77;51.29
829;BME280;396;52.558;13.188;2023-02-28T10:43:22;102743.03;;;4.79;51.00
829;BME280;396;52.558;13.188;2023-02-28T10:45:56;102740.75;;;4.83;50.84
829;BME280;396;52.558;13.188;2023-02-28T10:48:32;102747.94;;;4.82;50.19
829;BME280;396;52.558;13.188;2023-02-28T10:51:01;102742.56;;;4.95;51.03
829;BME280;396;52.558;13.188;2023-02-28T10:53:32;102738.66;;;4.98;50.38
829;BME280;396;52.558;13.188;2023-02-28T10:56:01;102737.78;;;5.11;51.10
829;BME280;396;52.558;13.188;2023-02-28T10:58:29;102743.34;;;5.22;49.79
829;BME280;396;52.558;13.188;2023-02-28T11:00:58;102742.66;;;5.40;49.73
829;BME280;396;52.558;13.188;2023-02-28T11:03:30;102730.41;;;5.51;50.30
829;BME280;396;52.558;13.188;2023-02-28T11:05:58;102733.94;;;5.45;47.64
829;BME280;396;52.558;13.188;2023-02-28T11:08:31;102733.59;;;5.28;47.88
829;BME280;396;52.558;13.188;2023-02-28T11:11:00;102724.41;;;5.49;49.68
829;BME280;396;52.558;13.188;2023-02-28T11:13:31;102728.63;;;5.76;49.87
829;BME280;396;52.558;13.188;2023-02-28T11:16:00;102724.81;;;5.91;47.95
829;BME280;396;52.558;13.188;2023-02-28T11:18:30;102713.75;;;6.05;48.11
829;BME280;396;52.558;13.188;2023-02-28T11:20:59;102720.53;;;6.15;47.85
829;BME280;396;52.558;13.188;2023-02-28T11:23:29;102708.19;;;6.07;46.04
829;BME280;396;52.558;13.188;2023-02-28T11:26:00;102711.31;;;6.29;47.17
829;BME280;396;52.558;13.188;2023-02-28T11:28:29;102714.22;;;6.52;47.35
829;BME280;396;52.558;13.188;2023-02-28T11:31:04;102707.63;;;7.10;47.59
829;BME280;396;52.558;13.188;2023-02-28T11:33:32;102697.28;;;7.86;45.58
829;BME280;396;52.558;13.188;2023-02-28T11:36:09;102702.78;;;8.79;44.31
829;BME280;396;52.558;13.188;2023-02-28T11:38:36;102703.88;;;9.30;40.32
829;BME280;396;52.558;13.188;2023-02-28T11:41:27;102707.25;;;10.11;39.96
829;BME280;396;52.558;13.188;2023-02-28T11:44:06;102712.13;;;10.82;38.13
829;BME280;396;52.558;13.188;2023-02-28T11:46:40;102700.69;;;11.19;36.12
829;BME280;396;52.558;13.188;2023-02-28T11:49:20;102705.31;;;12.26;36.01
829;BME280;396;52.558;13.188;2023-02-28T11:51:52;102720.88;;;12.78;35.00
829;BME280;396;52.558;13.188;2023-02-28T11:54:41;102713.81;;;13.25;33.80
829;BME280;396;52.558;13.188;2023-02-28T11:57:24;102717.47;;;13.66;33.73
829;BME280;396;52.558;13.188;2023-02-28T12:00:01;102721.31;;;14.47;32.92
829;BME280;396;52.558;13.188;2023-02-28T12:02:30;102741.28;;;15.37;31.47
829;BME280;396;52.558;13.188;2023-02-28T12:05:17;102731.56;;;16.10;30.11
829;BME280;396;52.558;13.188;2023-02-28T12:07:56;102724.72;;;16.12;29.87
829;BME280;396;52.558;13.188;2023-02-28T12:10:29;102725.56;;;16.08;29.08
829;BME280;396;52.558;13.188;2023-02-28T12:13:10;102716.81;;;16.40;28.98
829;BME280;396;52.558;13.188;2023-02-28T12:15:52;102726.97;;;16.63;28.41
829;BME280;396;52.558;13.188;2023-02-28T12:18:30;102721.53;;;16.58;29.51
829;BME280;396;52.558;13.188;2023-02-28T12:21:09;102716.59;;;16.89;28.43
829;BME280;396;52.558;13.188;2023-02-28T12:23:54;102719.59;;;17.12;28.33
829;BME280;396;52.558;13.188;2023-02-28T12:26:32;102724.44;;;17.39;28.49
829;BME280;396;52.558;13.188;2023-02-28T12:29:09;102722.75;;;17.24;27.58
829;BME280;396;52.558;13.188;2023-02-28T12:31:39;102708.09;;;17.53;27.02
829;BME280;396;52.558;13.188;2023-02-28T12:34:12;102700.34;;;17.41;27.23
829;BME280;396;52.558;13.188;2023-02-28T12:36:41;102700.25;;;18.03;26.38
829;BME280;396;52.558;13.188;2023-02-28T12:39:14;102698.50;;;18.39;25.99
829;BME280;396;52.558;13.188;2023-02-28T12:41:45;102690.69;;;18.47;26.12
829;BME280;396;52.558;13.188;2023-02-28T12:44:17;102681.78;;;18.08;27.34
829;BME280;396;52.558;13.188;2023-02-28T12:46:48;102673.22;;;17.21;26.04
829;BME280;396;52.558;13.188;2023-02-28T12:49:19;102680.03;;;17.61;27.16
829;BME280;396;52.558;13.188;2023-02-28T12:51:48;102676.97;;;18.00;25.84
829;BME280;396;52.558;13.188;2023-02-28T12:54:21;102676.69;;;18.02;26.58
829;BME280;396;52.558;13.188;2023-02-28T12:56:56;102667.94;;;18.00;26.10
829;BME280;396;52.558;13.188;2023-02-28T12:59:32;102662.56;;;17.76;26.98
829;BME280;396;52.558;13.188;2023-02-28T13:02:33;102653.38;;;17.67;26.55
829;BME280;396;52.558;13.188;2023-02-28T13:05:25;102651.13;;;17.87;26.23
829;BME280;396;52.558;13.188;2023-02-28T13:08:08;102650.81;;;17.75;27.17
829;BME280;396;52.558;13.188;2023-02-28T13:10:41;102642.50;;;17.05;27.25
829;BME280;396;52.558;13.188;2023-02-28T13:13:15;102651.22;;;16.59;27.84
829;BME280;396;52.558;13.188;2023-02-28T13:16:02;102641.03;;;16.40;27.70
829;BME280;396;52.558;13.188;2023-02-28T13:18:35;102640.41;;;16.20;28.28
829;BME280;396;52.558;13.188;2023-02-28T13:21:06;102634.34;;;15.99;28.39
829;BME280;396;52.558;13.188;2023-02-28T13:23:56;102635.34;;;15.74;28.48
829;BME280;396;52.558;13.188;2023-02-28T13:29:40;102639.50;;;15.22;29.55
829;BME280;396;52.558;13.188;2023-02-28T13:32:42;102633.84;;;15.08;29.99
829;BME280;396;52.558;13.188;2023-02-28T13:35:35;102636.13;;;14.85;29.60
829;BME280;396;52.558;13.188;2023-02-28T13:38:21;102644.63;;;14.74;29.30
829;BME280;396;52.558;13.188;2023-02-28T13:40:48;102632.34;;;14.76;29.07
829;BME280;396;52.558;13.188;2023-02-28T13:43:17;102635.38;;;14.70;29.00
829;BME280;396;52.558;13.188;2023-02-28T13:46:10;102635.72;;;14.27;30.00